Perryopolis, PA (15473)

9:47 AM EDT on April 21, 2015 (GMT -0400)
old sunken rd | | Change Station
CLOSE
Current Station
Personal Weather Station
Location: Scottdale, PA
Elevation: 1033 ft
Nearby Weather Stations

Elev 1033 ft 40.10 °N, 79.66 °W | Updated 14 minutes ago

Clear
Clear
51.3 °F
Feels Like 51.3 °F
N
5.8
Wind Variable Wind from SSE

Today
High -- | Low -- °F
--% Chance of Precip.
Yesterday
High -- | Low -- °F
Precip. -- in
6:32 AM 8:03 PM
Waxing Crescent, 10% visible
Pressure 29.76 in
Visibility 10.0 miles
Clouds Few 3600 ft
Dew Point 36 °F
Humidity 55%
Rainfall 0.02 in
Snow Depth Not available.
UV 2 out of 12
Pollen 10.40 out of 12
Air Quality Not available.
Flu Activity Sporadic
METAR KAGC 211253Z AUTO 23015G22KT 10SM FEW036 09/M01 A2974 RMK AO2 SLP077 T00891011 TSNO

More Conditions Fewer Conditions

Pressure 29.76 in
Visibility 10.0 miles
Clouds Few 3600 ft
Dew Point 36 °F
Humidity 55%
Rainfall 0.02 in
Snow Depth Not available.
UV 2 out of 12
Pollen 10.40 out of 12
Air Quality Not available.
Flu Activity Sporadic
METAR KAGC 211253Z AUTO 23015G22KT 10SM FEW036 09/M01 A2974 RMK AO2 SLP077 T00891011 TSNO

More Conditions Fewer Conditions

10-Day Weather Forecast

Almanac

Astronomy

Apr. 21, 2015 Rise Set
Actual Time
Civil Twilight
Nautical Twilight
Astronomical Twilight
Moon
Length of Visible Light
Length of Day
Tomorrow will be .
, % of the Moon is Illuminated

Today's Extremes

State Highs State Lows

Community

WunderPhotos

Upload Photos

1,815,383 photos uploaded!

WunderBlogs® & News

Nearby

Air Quality

  Air Quality AQ Index Pollutant
Not available.

Snow Depth

Station Depth Elevation

Earthquake Activity

City Distance Mag. Time & Date
Minimum magnitude displayed is 2.5.

Coastal Water Temperatures

Place Temperature

Stations

Nearby Weather Stations

Station Location Temp. Windchill Dew Point Humidity Wind Precip. Elev Updated Type